Tiempo atmosférico en la estación meteorológica de Manacor, Illes Balears (100 m.)



Fecha
DESCASC
Temp. máxima en grados centígrados (hora)
DESCASC
Temp. mínima en grados centígrados (hora)
DESCASC
Temp. media en grados centígrados
DESCASC
Racha de viento máxima en m/sg (hora)
DESCASC
Velocidad máxima media en intervalos de 10 minutos(hora)
DESCASC
Precipitaciones diarias en mm
DESCASC
Precipitaciones de 00:00 a 06:00 en mm
DESCASC
Precipitaciones de 06:00 a 12:00 en mm
DESCASC
Precipitaciones de 12:00 a 18:00 en mm
DESCASC
Precipitaciones de 18:00 a 24:00 en mm
DESCASC
25-01-2020 16.2 (15:30) 6.2 (07:10) 11.2 6.39 (13:40) 2.78 (13:30) 0.2 0 0.2 0 0
24-01-2020 17.4 (15:10) 5.7 (08:30) 11.5 4.44 (15:50) 2.22 (16:30) 0 0 0 0 0
23-01-2020 17.3 (14:10) 7.5 (23:10) 12.4 6.39 (04:20) 3.33 (04:20) 0 0 0 0 0
22-01-2020 16.1 (13:20) 8.8 (00:00) 12.5 9.17 (13:10) 5 (13:20) 1.2 0 0.2 0 1
21-01-2020 14.5 (10:20) 10.5 (00:00) 12.5 17.22 (11:00) 7.5 (13:40) 1 0 0 1 0
20-01-2020 13.5 (15:40) 8.6 (00:00) 11.1 18.61 (07:50) 8.89 (04:20) 92.8 32.6 59.6 0.4 0.2
19-01-2020 12 (00:40) 9 (00:00) 10.5 18.06 (18:50) 9.17 (18:10) 65.6 0.2 11.4 30 24
18-01-2020 15.8 (15:20) 4 (00:00) 9.9 5.28 (16:00) 3.61 (16:50) 0 0 0 0 0
17-01-2020 16.9 (16:20) 7.5 (00:00) 12.2 11.94 (13:10) 7.78 (12:30) 0 0 0 0 0
16-01-2020 16.9 (15:20) 3.5 (00:00) 10.2 6.11 (13:10) 3.61 (13:20) 0 0 0 0 0
15-01-2020 15.6 (11:50) 5.7 (00:00) 10.7 8.89 (11:30) 5.28 (14:10) 0 0 0 0 0
14-01-2020 14.6 (11:00) 8.6 (00:00) 11.6 8.61 (12:40) 5 (12:50) 0 0 0 0 0
13-01-2020 14.4 (14:20) 1.1 (00:00) 7.7 8.61 (11:50) 6.39 (12:10) 0 0 0 0 0
12-01-2020 13.7 (14:10) 4.3 (00:00) 9 7.78 (12:00) 3.89 (13:10) 0 0 0 0 0
11-01-2020 13.1 (11:10) 8.8 (00:00) 11 11.39 (15:30) 5.83 (13:30) 0 0 0 0 0
10-01-2020 13.3 (12:30) 4 (00:00) 8.7 10.28 (18:30) 5 (16:50) 1 0 0 1 0
09-01-2020 16.2 (15:10) 3.6 (00:00) 9.9 5.56 (14:30) 2.5 (14:30) 0 0 0 0 0
08-01-2020 15.2 (13:10) 5.8 (00:00) 10.5 8.06 (13:10) 3.61 (13:40) 0 0 0 0 0
07-01-2020 16 (14:00) 7.6 (00:00) 11.8 4.72 (14:20) 2.22 (14:10) 0 0 0 0 0
06-01-2020 13.2 (15:00) 4.8 (00:00) 9 4.17 (12:10) 3.06 (12:30) 0 0 0 0 0
05-01-2020 17.7 (14:10) 2 (00:00) 9.9 4.44 (15:50) 2.22 (16:20) 0 0 0 0 0
04-01-2020 16 (14:50) 5.9 (00:00) 11 6.39 (16:20) 4.17 (16:30) 0 0 0 0 0
03-01-2020 14.4 (13:20) 8.3 (00:00) 11.3 5 (13:50) 3.06 (13:40) 0 0 0 0 0
02-01-2020 15.4 (13:50) 6.6 (00:00) 11 5 (13:00) 2.78 (14:30) 0 0 0 0 0
01-01-2020 13.3 (14:10) 4 (00:00) 8.7 2.5 (19:30) 1.39 (18:50) 0 0 0 0 0
31-12-2019 15.8 (15:40) 4.5 (00:00) 10.2 4.72 (16:00) 2.5 (14:00) 0 0 0 0 0
30-12-2019 15.7 (14:00) 4.1 (00:00) 9.9 -- (--) -- (--) 0 0 0 0 0
29-12-2019 13.8 (12:50) 4.9 (00:00) 9.4 3.33 (15:50) 1.67 (15:50) 0 0 0 0 0
28-12-2019 16.2 (14:30) 5.9 (00:00) 11.1 5 (19:20) 2.5 (11:50) 0 0 0 0 0

Gráficas

Temp. máximas Temp. mínimas Temp. medias Precipitaciones Rachas de viento máximas Velocidades máximas media en intervalos de 10 minutos

Datos horarios

Fecha y hora oficial Temperatura (ºC) Velocidad del viento (km/h) Dirección del viento Racha (km/h) Dirección de racha Precipitación (mm) Presión (hPa) Tendencia (hPa) Humedad (%)
2020-01-26 23:00:00 7.6 3 Nordeste 4 Este 0 -- -- 93
2020-01-26 22:00:00 8.5 0 Calma 8 Sur 0 -- -- 91
2020-01-26 21:00:00 9 3 Sudoeste 5 Sudoeste 0 -- -- 90
2020-01-26 20:00:00 10.2 0 Calma 4 Nordeste 0 -- -- 86
2020-01-26 19:00:00 12.3 3 Nordeste 9 Norte 0 -- -- 81
2020-01-26 18:00:00 13.9 2 Nordeste 8 Nordeste 0 -- -- 80
2020-01-26 17:00:00 15.1 4 Nordeste 11 Nordeste 0 -- -- 75
2020-01-26 16:00:00 15.7 2 Noroeste 8 Oeste 0 -- -- 66
2020-01-26 15:00:00 15.8 4 Oeste 10 Oeste 0 -- -- 67
2020-01-26 14:00:00 15.9 2 Noroeste 9 Sudoeste 0 -- -- 71
2020-01-26 13:00:00 15.3 8 Oeste 15 Sudoeste 0 -- -- 79
2020-01-26 12:00:00 15 9 Oeste 13 Sudoeste 0 -- -- 79
2020-01-26 11:00:00 12.4 3 Sudoeste 12 Noroeste 0 -- -- 99
2020-01-26 10:00:00 10.3 0 Calma 5 Noroeste 0 -- -- 100
2020-01-26 09:00:00 8.5 0 Calma 4 Sur 0 -- -- 99
2020-01-26 08:00:00 6.8 0 Calma 3 Nordeste 0 -- -- 98
2020-01-26 07:00:00 7.1 0 Calma 3 Nordeste 0 -- -- 98
2020-01-26 06:00:00 6.3 0 Calma 2 Sudoeste 0 -- -- 98
2020-01-26 05:00:00 7.1 2 Nordeste 5 Sudoeste 0 -- -- 97
2020-01-26 04:00:00 7.4 0 Calma 3 Nordeste 0 -- -- 98
2020-01-26 03:00:00 8.2 0 Calma 3 Nordeste 0 -- -- 96
2020-01-26 02:00:00 10.4 0 Calma 15 Sur 0 -- -- 97
2020-01-26 01:00:00 11.1 8 Sudoeste 16 Sudoeste 0 -- -- 96
2020-01-26 00:00:00 11.6 2 Sudeste 14 Este 0 -- -- 96
2020-01-25 23:00:00 12.2 8 Este 16 Sudeste 0 -- -- 97
2020-01-25 22:00:00 11.4 0 Calma 5 Nordeste 0 -- -- 96
2020-01-25 21:00:00 11.5 0 Calma 7 Sudoeste 0 -- -- 94
2020-01-25 20:00:00 12.4 2 Este 6 Este 0 -- -- 94
2020-01-25 19:00:00 13.2 5 Este 10 Este 0 -- -- 94
2020-01-25 18:00:00 13.4 4 Este 10 Este 0 -- -- 91
2020-01-25 17:00:00 14.5 4 Este 15 Este 0 -- -- 86
2020-01-25 16:00:00 15.7 6 Este 17 Este 0 -- -- 77
2020-01-25 15:00:00 15.6 9 Este 17 Este 0 -- -- 79
2020-01-25 14:00:00 16.1 10 Este 23 Este 0 -- -- 78
2020-01-25 13:00:00 16 8 Este 17 Este 0 -- -- 79
2020-01-25 12:00:00 14.6 5 Este 18 Este 0 -- -- 88
2020-01-25 11:00:00 13.5 7 Este 14 Este 0 -- -- 98
2020-01-25 10:00:00 10.7 0 Calma 3 Norte 0.2 -- -- 100
2020-01-25 09:00:00 8.7 0 Calma 6 Este 0 -- -- 98
2020-01-25 08:00:00 8.1 4 Este 6 Este 0 -- -- 99
2020-01-25 07:00:00 6.5 0 Calma 8 Este 0 -- -- 97
2020-01-25 06:00:00 6.7 2 Sudeste 6 Este 0 -- -- 97
2020-01-25 05:00:00 7 2 Sudeste 3 Sur 0 -- -- 98
2020-01-25 04:00:00 7.2 0 Calma 3 Sudoeste 0 -- -- 97
2020-01-25 03:00:00 7.8 2 Este 4 Este 0 -- -- 96
2020-01-25 02:00:00 8.2 0 Calma 3 Nordeste 0 -- -- 96
2020-01-25 01:00:00 8.2 0 Calma 5 Este 0 -- -- 96
2020-01-25 00:00:00 7.7 4 Este 7 Este 0 -- -- 97
2020-01-24 23:00:00 7 0 Calma 2 Sur 0 -- -- 95
2020-01-24 22:00:00 7.6 0 Calma 3 Nordeste 0 -- -- 94
2020-01-24 21:00:00 8.1 0 Calma 6 Sudeste 0 -- -- 92
2020-01-24 20:00:00 9.4 0 Calma 4 Sudoeste 0 -- -- 90
2020-01-24 19:00:00 11 0 Calma 11 Sudeste 0 -- -- 87
2020-01-24 18:00:00 12.7 4 Este 12 Este 0 -- -- 82
2020-01-24 17:00:00 14.9 6 Este 15 Este 0 -- -- 77
2020-01-24 16:00:00 16.2 6 Sudeste 16 Este 0 -- -- 73
2020-01-24 15:00:00 17.1 4 Noroeste 11 Noroeste 0 -- -- 57
2020-01-24 14:00:00 16.4 5 Noroeste 12 Noroeste 0 -- -- 61
2020-01-24 13:00:00 15.6 5 Noroeste 12 Noroeste 0 -- -- 72
2020-01-24 12:00:00 14.2 5 Noroeste 11 Norte 0 -- -- 82
2020-01-24 11:00:00 11.6 3 Oeste 7 Oeste 0 -- -- 97
2020-01-24 10:00:00 9.4 0 Calma 4 Sudoeste 0 -- -- 100
2020-01-24 09:00:00 6.2 0 Calma 3 Noroeste 0 -- -- 99
2020-01-24 08:00:00 6 0 Calma 3 Nordeste 0 -- -- 98
2020-01-24 07:00:00 6.4 3 Oeste 4 Sudoeste 0 -- -- 98
2020-01-24 06:00:00 6.8 0 Calma 5 Sudoeste 0 -- -- 97
2020-01-24 05:00:00 6.8 0 Calma 4 Sudoeste 0 -- -- 98
2020-01-24 04:00:00 7 2 Sudoeste 5 Sur 0 -- -- 97
2020-01-24 03:00:00 7.8 0 Calma 5 Sur 0 -- -- 97
2020-01-24 02:00:00 7.3 0 Calma 4 Sudoeste 0 -- -- 97
2020-01-24 01:00:00 7.3 0 Calma 3 Sudoeste 0 -- -- 96
2020-01-24 00:00:00 7.6 3 Sudoeste 4 Sudoeste 0 -- -- 96
2020-01-23 23:00:00 7.6 0 Calma 2 Este 0 -- -- 95
2020-01-23 22:00:00 8 0 Calma 3 Sudeste 0 -- -- 94
2020-01-23 21:00:00 8.7 0 Calma 4 Nordeste 0 -- -- 93
2020-01-23 20:00:00 9.3 0 Calma 4 Sur 0 -- -- 91
2020-01-23 19:00:00 10.9 3 Sur 7 Este 0 -- -- 89
2020-01-23 18:00:00 12.8 5 Este 12 Este 0 -- -- 83
2020-01-23 17:00:00 15.5 4 Sudeste 12 Este 0 -- -- 74
2020-01-23 16:00:00 16.9 4 Sudeste 12 Este 0 -- -- 68
2020-01-23 15:00:00 17.2 4 Este 10 Este 0 -- -- 68
2020-01-23 14:00:00 16.9 4 Oeste 10 Noroeste 0 -- -- 57
2020-01-23 13:00:00 16 4 Oeste 9 Oeste 0 -- -- 62
2020-01-23 12:00:00 14.7 7 Sudoeste 13 Oeste 0 -- -- 71
2020-01-23 11:00:00 13.4 3 Oeste 5 Oeste 0 -- -- 81
2020-01-23 10:00:00 11.8 0 Calma 4 Nordeste 0 -- -- 90
2020-01-23 09:00:00 9.7 0 Calma 14 Oeste 0 -- -- 92
2020-01-23 08:00:00 11.5 5 Sur 14 Sudoeste 0 -- -- 85
2020-01-23 07:00:00 11.4 4 Sur 13 Sur 0 -- -- 84
2020-01-23 06:00:00 11 4 Sur 15 Sur 0 -- -- 84
2020-01-23 05:00:00 11.8 6 Sur 23 Sur 0 -- -- 79
2020-01-23 04:00:00 11.7 4 Sur 12 Sudeste 0 -- -- 82
2020-01-23 03:00:00 12 4 Sur 12 Este 0 -- -- 86
2020-01-23 02:00:00 13.2 7 Sudeste 18 Sur 0 -- -- 79
2020-01-23 01:00:00 13.7 10 Sudoeste 16 Sudoeste 0 -- -- 92
2020-01-23 00:00:00 13.6 5 Sudeste 10 Este 0.6 -- -- 95
2020-01-22 23:00:00 13.8 4 Este 17 Nordeste 0.4 -- -- 93
2020-01-22 22:00:00 13.6 7 Este 15 Este 0 -- -- 93
2020-01-22 21:00:00 13.3 5 Este 12 Este 0 -- -- 93
2020-01-22 20:00:00 13.7 4 Este 18 Este 0 -- -- 91
2020-01-22 19:00:00 14 9 Este 32 Este 0 -- -- 90
2020-01-22 18:00:00 14.2 9 Este 23 Este 0 -- -- 90
2020-01-22 17:00:00 15 12 Este 26 Este 0 -- -- 87
2020-01-22 16:00:00 15.5 12 Sudeste 28 Este 0 -- -- 85
2020-01-22 15:00:00 16 15 Este 32 Sudeste 0 -- -- 82
2020-01-22 14:00:00 16.1 14 Este 33 Este 0 -- -- 84
2020-01-22 13:00:00 15.9 15 Este 31 Sudeste 0 -- -- 85
2020-01-22 12:00:00 15.3 12 Este 24 Este 0 -- -- 87
2020-01-22 11:00:00 14.4 8 Este 19 Este 0 -- -- 97
2020-01-22 10:00:00 13.4 4 Este 10 Nordeste 0 -- -- 99
2020-01-22 09:00:00 12 3 Este 8 Este 0 -- -- 99
2020-01-22 08:00:00 12.3 3 Este 8 Sudeste 0 -- -- 98
2020-01-22 07:00:00 11.6 3 Este 7 Este 0.2 -- -- 98
2020-01-22 06:00:00 11.1 4 Este 8 Este 0 -- -- 99
2020-01-22 05:00:00 10.1 5 Este 8 Este 0 -- -- 99
2020-01-22 04:00:00 8.9 0 Calma 2 Sur 0 -- -- 97
2020-01-22 03:00:00 9.3 0 Calma 4 Noroeste 0 -- -- 97
2020-01-22 02:00:00 9.7 0 Calma 5 Nordeste 0 -- -- 97
2020-01-22 01:00:00 10.1 0 Calma 4 Este 0 -- -- 97
2020-01-22 00:00:00 10.5 2 Este 5 Sudeste 0 -- -- 96
2020-01-21 23:00:00 11 0 Calma 2 Norte 0 -- -- 95
2020-01-21 22:00:00 12.1 0 Calma 8 Este 0 -- -- 94
2020-01-21 21:00:00 12.9 0 Calma 17 Este 0 -- -- 92
2020-01-21 20:00:00 13.4 8 Este 21 Este 0 -- -- 92
2020-01-21 19:00:00 13.7 9 Este 33 Este 0 -- -- 90
2020-01-21 18:00:00 14.1 14 Este 41 Este 0 -- -- 87
2020-01-21 17:00:00 14.3 21 Este 42 Este 0 -- -- 87
2020-01-21 16:00:00 14 21 Este 46 Sudeste 0.8 -- -- 88
2020-01-21 15:00:00 14.1 18 Este 51 Nordeste 0.2 -- -- 87
2020-01-21 14:00:00 14.4 22 Este 56 Nordeste 0 -- -- 82
2020-01-21 13:00:00 14.4 23 Este 54 Este 0 -- -- 83
2020-01-21 12:00:00 14.3 25 Este 57 Este 0 -- -- 84
2020-01-21 11:00:00 14.4 23 Este 62 Nordeste 0 -- -- 84
2020-01-21 10:00:00 14.4 26 Este 53 Nordeste 0 -- -- 84
2020-01-21 09:00:00 14.1 19 Este 47 Este 0 -- -- 86
2020-01-21 08:00:00 14 18 Nordeste 44 Nordeste 0 -- -- 88
2020-01-21 07:00:00 13.9 16 Este 49 Este 0 -- -- 88
2020-01-21 06:00:00 13.9 17 Este 42 Nordeste 0 -- -- 88
2020-01-21 05:00:00 13.9 17 Este 44 Este 0 -- -- 87
2020-01-21 04:00:00 14 19 Este 43 Este 0 -- -- 85
2020-01-21 03:00:00 14 20 Este 44 Este 0 -- -- 87
2020-01-21 02:00:00 14 18 Este 44 Nordeste 0 -- -- 88
2020-01-21 01:00:00 14 17 Este 41 Nordeste 0 -- -- 90
2020-01-21 00:00:00 13.1 14 Nordeste 28 Este 0 -- -- 90
2020-01-20 23:00:00 13.1 12 Este 26 Este 0 -- -- 93
2020-01-20 22:00:00 12.9 17 Nordeste 35 Nordeste 0.2 -- -- 93
2020-01-20 21:00:00 12.8 13 Este 33 Nordeste 0 -- -- 88
2020-01-20 20:00:00 11.8 10 Nordeste 20 Nordeste 0 -- -- 90
2020-01-20 19:00:00 11.9 8 Este 19 Nordeste 0 -- -- 92
2020-01-20 18:00:00 11.9 0 Calma 12 Sudeste 0 -- -- 93
2020-01-20 17:00:00 12.5 5 Este 13 Este 0 -- -- 93
2020-01-20 16:00:00 12.9 8 Este 25 Este 0.4 -- -- 89
2020-01-20 15:00:00 13.1 7 Este 27 Nordeste 0 -- -- 91
2020-01-20 14:00:00 13.1 20 Nordeste 43 Nordeste 0 -- -- 91
2020-01-20 13:00:00 12.6 22 Nordeste 41 Este 0 -- -- 94
2020-01-20 12:00:00 11.8 14 Este 33 Este 1.4 -- -- 98
2020-01-20 11:00:00 9.9 12 Nordeste 25 Nordeste 11 -- -- 97
2020-01-20 10:00:00 9.3 7 Nordeste 29 Nordeste 11.4 -- -- 98
2020-01-20 09:00:00 8.7 13 Nordeste 26 Nordeste 7.6 -- -- 97
2020-01-20 08:00:00 10.4 13 Este 67 Este 9.4 -- -- 97
2020-01-20 07:00:00 9.8 13 Este 40 Nordeste 18.8 -- -- 97
2020-01-20 06:00:00 10.3 15 Nordeste 45 Este 4.8 -- -- 97
2020-01-20 05:00:00 10.6 21 Nordeste 57 Este 0.8 -- -- 97
2020-01-20 04:00:00 9.6 27 Nordeste 53 Nordeste 8.2 -- -- 96
2020-01-20 03:00:00 9.8 21 Nordeste 46 Nordeste 8 -- -- 96
2020-01-20 02:00:00 9.7 22 Nordeste 50 Nordeste 5.2 -- -- 96
2020-01-20 01:00:00 9.8 19 Nordeste 46 Nordeste 5.6 -- -- 96
2020-01-20 00:00:00 9.9 25 Nordeste 47 Nordeste 4 -- -- 96
2020-01-19 23:00:00 9.8 22 Nordeste 42 Nordeste 4.4 -- -- 96
2020-01-19 22:00:00 9.7 30 Nordeste 59 Norte 3.6 -- -- 96
2020-01-19 21:00:00 9.4 28 Nordeste 57 Nordeste 2.4 -- -- 96
2020-01-19 20:00:00 9.1 29 Nordeste 60 Nordeste 5.2 -- -- 96
2020-01-19 19:00:00 9.4 31 Nordeste 65 Nordeste 4.4 -- -- 95
2020-01-19 18:00:00 10 28 Nordeste 55 Nordeste 6.4 -- -- 96
2020-01-19 17:00:00 10.2 33 Nordeste 58 Nordeste 4.8 -- -- 95
2020-01-19 16:00:00 10.8 22 Nordeste 45 Nordeste 0.8 -- -- 96
2020-01-19 15:00:00 11 21 Nordeste 39 Nordeste 5.2 -- -- 96
2020-01-19 14:00:00 11.3 8 Nordeste 23 Nordeste 6.6 -- -- 97
2020-01-19 13:00:00 11.3 8 Nordeste 18 Nordeste 6.2 -- -- 97
2020-01-19 12:00:00 11.1 10 Nordeste 21 Nordeste 4.6 -- -- 96
2020-01-19 11:00:00 11.7 10 Nordeste 26 Nordeste 3.2 -- -- 96
2020-01-19 10:00:00 11.8 14 Nordeste 24 Nordeste 3.6 -- -- 96
2020-01-19 09:00:00 11.5 10 Nordeste 19 Nordeste 0 -- -- 96
2020-01-19 08:00:00 10.9 4 Este 10 Este 0 -- -- 95
2020-01-19 07:00:00 10.9 4 Este 9 Sudeste 0 -- -- 95
2020-01-19 06:00:00 10.7 3 Sudeste 7 Este 0.2 -- -- 94
2020-01-19 05:00:00 10.6 5 Este 8 Este 0 -- -- 93
2020-01-19 04:00:00 10.7 3 Este 6 Este 0 -- -- 93
2020-01-19 03:00:00 11.5 4 Sudoeste 10 Sudoeste 0 -- -- 93
2020-01-19 02:00:00 10 0 Calma 6 Noroeste 0 -- -- 91
2020-01-19 01:00:00 11.7 5 Sudoeste 14 Sur 0 -- -- 86
2020-01-19 00:00:00 11.3 7 Sudoeste 12 Sudoeste 0 -- -- 95
2020-01-18 23:00:00 8.1 0 Calma 5 Norte 0 -- -- 94
2020-01-18 22:00:00 8.7 0 Calma 9 Sudoeste 0 -- -- 93
2020-01-18 21:00:00 9.1 0 Calma 11 Sudoeste 0 -- -- 90
2020-01-18 20:00:00 10.3 6 Sudoeste 12 Sudoeste 0 -- -- 90
2020-01-18 19:00:00 10.6 6 Sudoeste 16 Sudoeste 0 -- -- 83
2020-01-18 18:00:00 12.5 10 Sudoeste 18 Sudoeste 0 -- -- 69
2020-01-18 17:00:00 14.7 12 Sudoeste 19 Sudoeste 0 -- -- 59
2020-01-18 16:00:00 15.6 12 Sudoeste 19 Sudoeste 0 -- -- 65
2020-01-18 15:00:00 15.6 9 Sudoeste 18 Sudoeste 0 -- -- 68
2020-01-18 14:00:00 14.9 10 Sudoeste 15 Sudoeste 0 -- -- 77
2020-01-18 13:00:00 13.9 8 Sur 16 Sudoeste 0 -- -- 82
2020-01-18 12:00:00 11.7 0 Calma 5 Oeste 0 -- -- 89
2020-01-18 11:00:00 9.2 0 Calma 2 Norte 0 -- -- 96
2020-01-18 10:00:00 7.3 0 Calma 4 Nordeste 0 -- -- 98
2020-01-18 09:00:00 5.8 0 Calma 4 Nordeste 0 -- -- 98
2020-01-18 08:00:00 4.6 0 Calma 6 Este 0 -- -- 96
2020-01-18 07:00:00 4.2 4 Este 5 Sudeste 0 -- -- 95
2020-01-18 06:00:00 4.5 0 Calma 3 Sur 0 -- -- 95
2020-01-18 05:00:00 4.9 0 Calma 2 Sur 0 -- -- 94
2020-01-18 04:00:00 5.7 0 Calma 5 Sur 0 -- -- 94
2020-01-18 03:00:00 6.3 0 Calma 7 Sudeste 0 -- -- 92
2020-01-18 02:00:00 7 3 Este 9 Sudeste 0 -- -- 90
2020-01-18 01:00:00 8.5 3 Sudeste 13 Sudeste 0 -- -- 86
2020-01-18 00:00:00 9.7 4 Este 17 Nordeste 0 -- -- 84
2020-01-17 23:00:00 8.9 3 Sudoeste 15 Nordeste 0 -- -- 74
2020-01-17 22:00:00 11 8 Sudoeste 12 Sudoeste 0 -- -- 67
2020-01-17 21:00:00 9.8 6 Sudoeste 10 Sudoeste 0 -- -- 75
2020-01-17 20:00:00 10.6 6 Sudoeste 11 Oeste 0 -- -- 72
2020-01-17 19:00:00 12 9 Sudoeste 15 Sudoeste 0 -- -- 69
2020-01-17 18:00:00 13.6 6 Sudoeste 14 Oeste 0 -- -- 63
2020-01-17 17:00:00 16.7 10 Oeste 21 Sudoeste 0 -- -- 52
2020-01-17 16:00:00 16.7 15 Sudoeste 34 Sudoeste 0 -- -- 59
2020-01-17 15:00:00 16.5 22 Sudoeste 38 Sudoeste 0 -- -- 58
2020-01-17 14:00:00 16.8 21 Sudoeste 43 Sudoeste 0 -- -- 58
2020-01-17 13:00:00 16.4 26 Sudoeste 40 Sudoeste 0 -- -- 62
2020-01-17 12:00:00 15.9 22 Sudoeste 36 Sudoeste 0 -- -- 69
2020-01-17 11:00:00 14.4 22 Sudoeste 32 Sudoeste 0 -- -- 87
2020-01-17 10:00:00 13 23 Sudoeste 32 Sudoeste 0 -- -- 89
2020-01-17 09:00:00 12.1 17 Sudoeste 30 Sudoeste 0 -- -- 91
2020-01-17 08:00:00 11.4 19 Sudoeste 33 Sudoeste 0 -- -- 92
2020-01-17 07:00:00 11.3 18 Sudoeste 29 Sudoeste 0 -- -- 92
2020-01-17 06:00:00 11.3 18 Sudoeste 26 Sudoeste 0 -- -- 93
2020-01-17 05:00:00 11.1 18 Sudoeste 26 Sudoeste 0 -- -- 92
2020-01-17 04:00:00 11.3 15 Sudoeste 24 Sudoeste 0 -- -- 91
2020-01-17 03:00:00 9.9 8 Sudoeste 19 Sudoeste 0 -- -- 95
2020-01-17 02:00:00 10.5 11 Sudoeste 19 Sudoeste 0 -- -- 96
2020-01-17 01:00:00 7.8 0 Calma 4 Norte 0 -- -- 96
2020-01-17 00:00:00 8 0 Calma 6 Sudoeste 0 -- -- 94
2020-01-16 23:00:00 9 2 Norte 5 Nordeste 0 -- -- 94
2020-01-16 22:00:00 9.5 2 Nordeste 9 Sudoeste 0 -- -- 91
2020-01-16 21:00:00 11.6 7 Sudoeste 15 Sudoeste 0 -- -- 88
2020-01-16 20:00:00 12 8 Sudoeste 15 Sudoeste 0 -- -- 87
2020-01-16 19:00:00 12.3 9 Sudoeste 17 Sudoeste 0 -- -- 85
2020-01-16 18:00:00 13.1 9 Sudoeste 15 Sudoeste 0 -- -- 81
2020-01-16 17:00:00 15.4 10 Sudoeste 16 Sudoeste 0 -- -- 73
2020-01-16 16:00:00 16.6 10 Sudoeste 16 Sur 0 -- -- 68
2020-01-16 15:00:00 16.8 8 Sudoeste 19 Sudoeste 0 -- -- 67
2020-01-16 14:00:00 16.2 11 Sudoeste 22 Oeste 0 -- -- 69
2020-01-16 13:00:00 15.4 13 Sudoeste 19 Sudoeste 0 -- -- 72
2020-01-16 12:00:00 14.4 11 Sudoeste 18 Sudoeste 0 -- -- 77
2020-01-16 11:00:00 11.3 0 Calma 4 Noroeste 0 -- -- 91
2020-01-16 10:00:00 7.4 0 Calma 2 Norte 0 -- -- 99
2020-01-16 09:00:00 4.4 0 Calma 4 Sudoeste 0 -- -- 97
2020-01-16 08:00:00 3.5 0 Calma 2 Sur 0 -- -- 96
2020-01-16 07:00:00 4.2 0 Calma 3 Oeste 0 -- -- 97
2020-01-16 06:00:00 4.1 0 Calma 3 Este 0 -- -- 96
2020-01-16 05:00:00 4 0 Calma 2 Noroeste 0 -- -- 96
2020-01-16 04:00:00 3.9 0 Calma 4 Nordeste 0 -- -- 95
2020-01-16 03:00:00 4.5 0 Calma 7 Oeste 0 -- -- 95
2020-01-16 02:00:00 4.9 0 Calma 3 Este 0 -- -- 94
2020-01-16 01:00:00 5.6 0 Calma 4 Sur 0 -- -- 94
2020-01-16 00:00:00 5.7 0 Calma 3 Sur 0 -- -- 93
2020-01-15 23:00:00 6 0 Calma 4 Este 0 -- -- 91
2020-01-15 22:00:00 7.2 0 Calma 2 Norte 0 -- -- 90
2020-01-15 21:00:00 8.6 3 Sudoeste 10 Oeste 0 -- -- 87
2020-01-15 20:00:00 10.2 8 Oeste 13 Sudoeste 0 -- -- 82
2020-01-15 19:00:00 11.1 10 Sudoeste 21 Sudoeste 0 -- -- 79
2020-01-15 18:00:00 11.8 6 Sur 15 Sudoeste 0 -- -- 75
2020-01-15 17:00:00 13.3 8 Sudoeste 21 Sudoeste 0 -- -- 70
2020-01-15 16:00:00 14.5 12 Sudoeste 26 Sudoeste 0 -- -- 65
2020-01-15 15:00:00 15.2 14 Sudoeste 28 Sudoeste 0 -- -- 60
2020-01-15 14:00:00 14.9 17 Sudoeste 26 Sudoeste 0 -- -- 64
2020-01-15 13:00:00 15.3 12 Sudoeste 32 Sudoeste 0 -- -- 63
2020-01-15 12:00:00 15.4 17 Sudoeste 32 Sudoeste 0 -- -- 68
2020-01-15 11:00:00 14.5 9 Sudoeste 15 Sudoeste 0 -- -- 78
2020-01-15 10:00:00 13.4 7 Sudoeste 16 Sudoeste 0 -- -- 82
2020-01-15 09:00:00 12 6 Sudoeste 18 Sudoeste 0 -- -- 85
2020-01-15 08:00:00 12.1 6 Sur 19 Sur 0 -- -- 82
2020-01-15 07:00:00 11.5 9 Sur 17 Sudeste 0 -- -- 80
2020-01-15 06:00:00 12 6 Sur 20 Sur 0 -- -- 79
2020-01-15 05:00:00 12 11 Sur 22 Sur 0 -- -- 78
2020-01-15 04:00:00 12.1 8 Sur 17 Sudeste 0 -- -- 76
2020-01-15 03:00:00 11.9 6 Sudeste 14 Sudeste 0 -- -- 76
2020-01-15 02:00:00 11.8 6 Sur 21 Sur 0 -- -- 72
2020-01-15 01:00:00 11.5 6 Sur 15 Sur 0 -- -- 74
2020-01-15 00:00:00 11.5 8 Sur 21 Sur 0 -- -- 75
2020-01-14 23:00:00 11.5 5 Sur 16 Sudeste 0 -- -- 73
2020-01-14 22:00:00 11.4 5 Sur 15 Sur 0 -- -- 72
2020-01-14 21:00:00 11.3 8 Sur 15 Sur 0 -- -- 70
2020-01-14 20:00:00 11.4 7 Sur 15 Sur 0 -- -- 70
2020-01-14 19:00:00 11.7 6 Sur 13 Sur 0 -- -- 74
2020-01-14 18:00:00 11.9 6 Sur 15 Sur 0 -- -- 70
2020-01-14 17:00:00 13.1 8 Sur 23 Sudoeste 0 -- -- 65
2020-01-14 16:00:00 14.1 12 Sudoeste 22 Sudoeste 0 -- -- 64
2020-01-14 15:00:00 13.8 15 Sudoeste 29 Sudoeste 0 -- -- 66
2020-01-14 14:00:00 13.6 14 Sudoeste 28 Sur 0 -- -- 68
2020-01-14 13:00:00 14.3 16 Sudoeste 31 Sudoeste 0 -- -- 65
2020-01-14 12:00:00 14.5 10 Sur 29 Sudoeste 0 -- -- 62
2020-01-14 11:00:00 14.6 9 Sur 23 Sudoeste 0 -- -- 64
2020-01-14 10:00:00 12.2 10 Sur 20 Sur 0 -- -- 74
2020-01-14 09:00:00 11.2 8 Sudoeste 14 Sudoeste 0 -- -- 76
2020-01-14 08:00:00 9.7 4 Sur 13 Sur 0 -- -- 81
2020-01-14 07:00:00 10.5 6 Sudoeste 17 Sudoeste 0 -- -- 77
2020-01-14 06:00:00 10.5 9 Sudoeste 22 Sudoeste 0 -- -- 77
2020-01-14 05:00:00 10.3 10 Sudoeste 19 Sur 0 -- -- 78
2020-01-14 04:00:00 10.2 9 Sudoeste 19 Sudoeste 0 -- -- 78
2020-01-14 03:00:00 10.2 11 Sudoeste 23 Sudoeste 0 -- -- 79
2020-01-14 02:00:00 8.6 6 Sudoeste 22 Sudoeste 0 -- -- 84
2020-01-14 01:00:00 10.3 11 Sudoeste 23 Sudoeste 0 -- -- 79
2020-01-14 00:00:00 9.7 10 Sudoeste 18 Sudoeste 0 -- -- 83
2020-01-13 23:00:00 8 5 Sudoeste 16 Sudoeste 0 -- -- 89
2020-01-13 22:00:00 10.2 9 Sudoeste 18 Sudoeste 0 -- -- 82
2020-01-13 21:00:00 9.7 9 Sudoeste 14 Sudoeste 0 -- -- 81
2020-01-13 20:00:00 9.8 7 Sudoeste 12 Sudoeste 0 -- -- 81
2020-01-13 19:00:00 10.2 9 Sudoeste 14 Sudoeste 0 -- -- 81
2020-01-13 18:00:00 11.1 12 Sudoeste 20 Sudoeste 0 -- -- 76
2020-01-13 17:00:00 12.9 12 Sudoeste 26 Sudoeste 0 -- -- 69
2020-01-13 16:00:00 13.9 15 Sudoeste 27 Sudoeste 0 -- -- 65
2020-01-13 15:00:00 14.3 15 Sudoeste 26 Sudoeste 0 -- -- 63
2020-01-13 14:00:00 14.3 18 Sudoeste 28 Sudoeste 0 -- -- 64
2020-01-13 13:00:00 13.8 17 Sudoeste 30 Sudoeste 0 -- -- 72
2020-01-13 12:00:00 12.7 21 Sudoeste 31 Sudoeste 0 -- -- 75
2020-01-13 11:00:00 10.9 14 Sudoeste 19 Sudoeste 0 -- -- 88
2020-01-13 10:00:00 5.7 0 Calma 4 Oeste 0 -- -- 99
2020-01-13 09:00:00 1.6 0 Calma 4 Sudoeste 0 -- -- 97
2020-01-13 08:00:00 2 0 Calma 4 Noroeste 0 -- -- 97
2020-01-13 07:00:00 1.8 0 Calma 4 Norte 0 -- -- 97
2020-01-13 06:00:00 1.7 0 Calma 4 Noroeste 0 -- -- 97
2020-01-13 05:00:00 1.5 2 Oeste 4 Oeste 0 -- -- 96
2020-01-13 04:00:00 1.2 0 Calma 2 Sudoeste 0 -- -- 95
2020-01-13 03:00:00 1.8 0 Calma 2 Norte 0 -- -- 95
2020-01-13 02:00:00 2.6 0 Calma 2 Noroeste 0 -- -- 95
2020-01-13 01:00:00 3.1 2 Sur 5 Sur 0 -- -- 94
2020-01-13 00:00:00 4.4 0 Calma 4 Sudoeste 0 -- -- 94
2020-01-12 23:00:00 5.3 2 Oeste 7 Oeste 0 -- -- 92
2020-01-12 22:00:00 6.6 4 Sudoeste 8 Sudoeste 0 -- -- 90
2020-01-12 21:00:00 6.7 4 Sudoeste 9 Sudoeste 0 -- -- 90
2020-01-12 20:00:00 6.8 4 Sudoeste 5 Sudoeste 0 -- -- 89
2020-01-12 19:00:00 8.8 0 Calma 9 Nordeste 0 -- -- 82
2020-01-12 18:00:00 10.1 3 Nordeste 14 Noroeste 0 -- -- 77
2020-01-12 17:00:00 12.2 4 Noroeste 21 Noroeste 0 -- -- 71
2020-01-12 16:00:00 12.8 11 Norte 28 Norte 0 -- -- 69
2020-01-12 15:00:00 13.6 11 Norte 22 Noroeste 0 -- -- 66
2020-01-12 14:00:00 13.6 10 Norte 27 Norte 0 -- -- 65
2020-01-12 13:00:00 13.4 10 Norte 27 Norte 0 -- -- 64
2020-01-12 12:00:00 13.1 13 Norte 28 Norte 0 -- -- 65
2020-01-12 11:00:00 12 9 Noroeste 18 Noroeste 0 -- -- 70
2020-01-12 10:00:00 10.3 5 Noroeste 13 Noroeste 0 -- -- 76
2020-01-12 09:00:00 6.9 3 Sudoeste 5 Sudoeste 0 -- -- 92
2020-01-12 08:00:00 4.6 2 Sudoeste 4 Sur 0 -- -- 90
2020-01-12 07:00:00 5.4 2 Sudoeste 5 Sudoeste 0 -- -- 87
2020-01-12 06:00:00 6 2 Sudoeste 6 Sudoeste 0 -- -- 88
2020-01-12 05:00:00 5.7 3 Sudoeste 13 Noroeste 0 -- -- 86
2020-01-12 04:00:00 7.1 2 Sudoeste 6 Noroeste 0 -- -- 83
2020-01-12 03:00:00 7.2 3 Sudoeste 8 Norte 0 -- -- 83
2020-01-12 02:00:00 8.7 0 Calma 16 Noroeste 0 -- -- 76
2020-01-12 01:00:00 9.4 4 Norte 23 Norte 0 -- -- 74
2020-01-12 00:00:00 8.8 2 Oeste 11 Norte 0 -- -- 78
2020-01-11 23:00:00 9.8 4 Noroeste 17 Norte 0 -- -- 77
2020-01-11 22:00:00 10.3 4 Norte 19 Norte 0 -- -- 75
2020-01-11 21:00:00 10.8 8 Norte 20 Norte 0 -- -- 75
2020-01-11 20:00:00 10.3 5 Norte 16 Norte 0 -- -- 75
2020-01-11 19:00:00 9.9 7 Norte 22 Nordeste 0 -- -- 74
2020-01-11 18:00:00 10.1 7 Norte 27 Norte 0 -- -- 75
2020-01-11 17:00:00 11.5 11 Norte 31 Norte 0 -- -- 67
2020-01-11 16:00:00 11.9 13 Norte 41 Nordeste 0 -- -- 67
2020-01-11 15:00:00 11.9 17 Norte 38 Norte 0 -- -- 67
2020-01-11 14:00:00 12.4 17 Norte 37 Norte 0 -- -- 62
2020-01-11 13:00:00 12.6 17 Norte 37 Norte 0 -- -- 65
2020-01-11 12:00:00 11.8 14 Norte 34 Nordeste 0 -- -- 65
2020-01-11 11:00:00 12.8 16 Nordeste 32 Nordeste 0 -- -- 68
2020-01-11 10:00:00 10.8 12 Nordeste 24 Nordeste 0 -- -- 76
2020-01-11 09:00:00 10.6 9 Nordeste 26 Nordeste 0 -- -- 79
2020-01-11 08:00:00 10.5 7 Nordeste 21 Nordeste 0 -- -- 81
2020-01-11 07:00:00 10.5 10 Nordeste 26 Nordeste 0 -- -- 81
2020-01-11 06:00:00 10.3 10 Nordeste 21 Nordeste 0 -- -- 82
2020-01-11 05:00:00 10.5 15 Nordeste 38 Nordeste 0 -- -- 79
2020-01-11 04:00:00 11.1 14 Nordeste 32 Nordeste 0 -- -- 84
2020-01-11 03:00:00 11.1 15 Nordeste 29 Nordeste 0 -- -- 82
2020-01-11 02:00:00 10.6 10 Nordeste 30 Nordeste 0 -- -- 82
2020-01-11 01:00:00 10.9 14 Nordeste 34 Nordeste 0 -- -- 79
2020-01-11 00:00:00 11.2 17 Nordeste 34 Nordeste 0 -- -- 80
2020-01-10 23:00:00 10.9 15 Nordeste 28 Norte 0 -- -- 87
2020-01-10 22:00:00 11.1 12 Nordeste 29 Nordeste 0 -- -- 86
2020-01-10 21:00:00 11 14 Nordeste 31 Nordeste 0 -- -- 83
2020-01-10 20:00:00 11.1 14 Nordeste 31 Nordeste 0 -- -- 83
2020-01-10 19:00:00 11 16 Nordeste 37 Nordeste 0 -- -- 87
2020-01-10 18:00:00 10.7 12 Nordeste 35 Nordeste 0.2 -- -- 93
2020-01-10 17:00:00 11.2 15 Nordeste 36 Nordeste 0.6 -- -- 90
2020-01-10 16:00:00 12 15 Nordeste 35 Nordeste 0 -- -- 83
2020-01-10 15:00:00 12.5 14 Nordeste 29 Nordeste 0 -- -- 82
2020-01-10 14:00:00 12.5 14 Nordeste 27 Nordeste 0 -- -- 85
2020-01-10 13:00:00 12.1 15 Nordeste 30 Nordeste 0.2 -- -- 84
2020-01-10 12:00:00 12.9 7 Nordeste 22 Nordeste 0 -- -- 84
2020-01-10 11:00:00 12.1 7 Este 15 Nordeste 0 -- -- 93
2020-01-10 10:00:00 8.9 3 Sudoeste 5 Sudoeste 0 -- -- 98
2020-01-10 09:00:00 7.3 4 Sudoeste 8 Sudoeste 0 -- -- 99
2020-01-10 08:00:00 4 6 Sudoeste 9 Sudoeste 0 -- -- 96
2020-01-10 07:00:00 4.8 3 Este 4 Este 0 -- -- 97
2020-01-10 06:00:00 5.3 0 Calma 4 Sudeste 0 -- -- 97
2020-01-10 05:00:00 5.4 0 Calma 2 Noroeste 0 -- -- 97
2020-01-10 04:00:00 6 0 Calma 5 Sudoeste 0 -- -- 97
2020-01-10 03:00:00 6 4 Sudoeste 6 Sudoeste 0 -- -- 98
2020-01-10 02:00:00 5.3 4 Oeste 9 Sudoeste 0 -- -- 96
2020-01-10 01:00:00 5.4 0 Calma 5 Sudeste 0 -- -- 95
2020-01-10 00:00:00 6.1 0 Calma 4 Sudeste 0 -- -- 95
2020-01-09 23:00:00 7.2 0 Calma 4 Oeste 0 -- -- 93
2020-01-09 22:00:00 7.8 2 Oeste 8 Noroeste 0 -- -- 92
2020-01-09 21:00:00 9.1 3 Sudeste 6 Sudeste 0 -- -- 87
2020-01-09 20:00:00 10.8 3 Sudeste 7 Sudeste 0 -- -- 83
2020-01-09 19:00:00 11.8 4 Sudeste 7 Sudeste 0 -- -- 84
2020-01-09 18:00:00 12 5 Sudeste 8 Sudeste 0 -- -- 83
2020-01-09 17:00:00 13.2 4 Este 14 Sur 0 -- -- 78
2020-01-09 16:00:00 15.4 7 Sudeste 14 Sudeste 0 -- -- 70
2020-01-09 15:00:00 16 8 Este 20 Este 0 -- -- 64
2020-01-09 14:00:00 15.6 9 Este 19 Sudeste 0 -- -- 68
2020-01-09 13:00:00 13.8 2 Sur 9 Sudeste 0 -- -- 79
2020-01-09 12:00:00 13 3 Oeste 11 Oeste 0 -- -- 83
2020-01-09 11:00:00 11.5 4 Sudoeste 8 Sudoeste 0 -- -- 91
2020-01-09 10:00:00 8.5 4 Sudoeste 5 Sudoeste 0 -- -- 99
2020-01-09 09:00:00 5 0 Calma 4 Sur 0 -- -- 98
2020-01-09 08:00:00 3.6 0 Calma 2 Oeste 0 -- -- 97
2020-01-09 07:00:00 4.2 0 Calma 4 Nordeste 0 -- -- 97
2020-01-09 06:00:00 4.7 0 Calma 3 Oeste 0 -- -- 97
2020-01-09 05:00:00 4.9 0 Calma 5 Sudoeste 0 -- -- 96
2020-01-09 04:00:00 4.6 3 Sudoeste 5 Sudoeste 0 -- -- 96
2020-01-09 03:00:00 5.4 0 Calma 4 Sur 0 -- -- 96
2020-01-09 02:00:00 5.3 3 Sudoeste 4 Sudoeste 0 -- -- 95
2020-01-09 01:00:00 5.7 0 Calma 4 Sudoeste 0 -- -- 95
2020-01-09 00:00:00 6.1 3 Sudoeste 5 Sudoeste 0 -- -- 96
2020-01-08 23:00:00 6 0 Calma 3 Sudoeste 0 -- -- 93
2020-01-08 22:00:00 6.7 0 Calma 4 Sudoeste 0 -- -- 92
2020-01-08 21:00:00 7.2 0 Calma 2 Este 0 -- -- 90
2020-01-08 20:00:00 8.7 0 Calma 4 Oeste 0 -- -- 86
2020-01-08 19:00:00 10.5 3 Sudoeste 5 Sudoeste 0 -- -- 83
2020-01-08 18:00:00 11.9 0 Calma 19 Nordeste 0 -- -- 79
2020-01-08 17:00:00 13.3 9 Nordeste 21 Nordeste 0 -- -- 76
2020-01-08 16:00:00 14.6 8 Nordeste 23 Nordeste 0 -- -- 69
2020-01-08 15:00:00 14.9 10 Nordeste 24 Norte 0 -- -- 72
2020-01-08 14:00:00 14.5 11 Nordeste 29 Norte 0 -- -- 72
2020-01-08 13:00:00 14.6 10 Norte 23 Norte 0 -- -- 72
2020-01-08 12:00:00 14.5 10 Norte 28 Norte 0 -- -- 77
2020-01-08 11:00:00 13.3 13 Norte 27 Norte 0 -- -- 77
2020-01-08 10:00:00 11.2 2 Noroeste 14 Norte 0 -- -- 92
2020-01-08 09:00:00 8.4 0 Calma 6 Noroeste 0 -- -- 96
2020-01-08 08:00:00 7 0 Calma 5 Norte 0 -- -- 96
2020-01-08 07:00:00 6.3 0 Calma 5 Nordeste 0 -- -- 96
2020-01-08 06:00:00 6.1 0 Calma 4 Sur 0 -- -- 95
2020-01-08 05:00:00 6.7 0 Calma 5 Sur 0 -- -- 96
2020-01-08 04:00:00 6.7 0 Calma 5 Sur 0 -- -- 96
2020-01-08 03:00:00 6.1 0 Calma 3 Nordeste 0 -- -- 95
2020-01-08 02:00:00 6.5 0 Calma 6 Sudeste 0 -- -- 95
2020-01-08 01:00:00 6.9 3 Este 6 Oeste 0 -- -- 94
2020-01-08 00:00:00 8 3 Oeste 9 Sudoeste 0 -- -- 92
2020-01-07 23:00:00 8.9 5 Sudoeste 12 Oeste 0 -- -- 92
2020-01-07 22:00:00 9.5 7 Oeste 14 Sudoeste 0 -- -- 92
2020-01-07 21:00:00 9 4 Sudoeste 10 Sudoeste 0 -- -- 92
2020-01-07 20:00:00 8.2 2 Sur 4 Sudoeste 0 -- -- 90
2020-01-07 19:00:00 9.8 0 Calma 7 Sur 0 -- -- 85
2020-01-07 18:00:00 11.9 4 Sudeste 10 Este 0 -- -- 81
2020-01-07 17:00:00 14.5 5 Este 14 Sudeste 0 -- -- 75
2020-01-07 16:00:00 16 3 Este 13 Noroeste 0 -- -- 65
2020-01-07 15:00:00 15.9 4 Oeste 17 Norte 0 -- -- 62
2020-01-07 14:00:00 16 5 Noroeste 10 Noroeste 0 -- -- 65
2020-01-07 13:00:00 14.7 5 Norte 13 Noroeste 0 -- -- 70
2020-01-07 12:00:00 14.3 6 Noroeste 12 Norte 0 -- -- 72
2020-01-07 11:00:00 13.3 5 Oeste 8 Oeste 0 -- -- 82
2020-01-07 10:00:00 10.4 0 Calma 3 Sudoeste 0 -- -- 93
2020-01-07 09:00:00 8.1 2 Sudoeste 6 Sur 0 -- -- 93
2020-01-07 08:00:00 9 3 Sur 5 Sudoeste 0 -- -- 95
2020-01-07 07:00:00 7.8 0 Calma 3 Sur 0 -- -- 91
2020-01-07 06:00:00 9.9 3 Sudoeste 4 Sur 0 -- -- 88
2020-01-07 05:00:00 10.7 0 Calma 3 Sudoeste 0 -- -- 89
2020-01-07 04:00:00 10.8 3 Sudoeste 4 Sudoeste 0 -- -- 88
2020-01-07 03:00:00 10.7 2 Sudoeste 5 Oeste 0 -- -- 88
2020-01-07 02:00:00 10.8 0 Calma 3 Sudoeste 0 -- -- 87
2020-01-07 01:00:00 10.6 2 Oeste 4 Sudoeste 0 -- -- 88
2020-01-07 00:00:00 10.7 0 Calma 4 Sudoeste 0 -- -- 87
2020-01-06 23:00:00 10.8 0 Calma 4 Sudoeste 0 -- -- 87
2020-01-06 22:00:00 10.9 2 Sudoeste 5 Sudoeste 0 -- -- 86
2020-01-06 21:00:00 11 0 Calma 4 Sudoeste 0 -- -- 86
2020-01-06 20:00:00 11.4 2 Sudoeste 3 Sudoeste 0 -- -- 83
2020-01-06 19:00:00 11.4 0 Calma 4 Sudoeste 0 -- -- 85
2020-01-06 18:00:00 11.9 0 Calma 2 Sur 0 -- -- 83
2020-01-06 17:00:00 12.6 0 Calma 6 Noroeste 0 -- -- 78
2020-01-06 16:00:00 13.1 3 Sudoeste 6 Sudoeste 0 -- -- 76
2020-01-06 15:00:00 13.2 4 Sudoeste 9 Sudoeste 0 -- -- 75
2020-01-06 14:00:00 12.9 6 Sudoeste 9 Sudoeste 0 -- -- 76
2020-01-06 13:00:00 12.4 7 Oeste 15 Oeste 0 -- -- 78
2020-01-06 12:00:00 11.8 8 Sudoeste 15 Sudoeste 0 -- -- 76
2020-01-06 11:00:00 9.7 2 Sudoeste 6 Noroeste 0 -- -- 89
2020-01-06 10:00:00 8.7 0 Calma 5 Sudoeste 0 -- -- 91